Time;durP1;ratioP1;P1;durP2;ratioP2;P2;SDS_P1;SDS_P2;PMS_P1;PMS_P2;Temp;Humidity;BMP_temperature;BMP_pressure;BME280_temperature;BME280_humidity;BME280_pressure;Samples;Min_cycle;Max_cycle;Signal;HPM_P1;HPM_P2
2021/12/08 00:00:21;;;;;;;0.70;0.47;;;;;;;4.07;95.59;97712.03;5118937;27;20277;-85
2021/12/08 00:02:47;;;;;;;0.30;0.20;;;;;;;4.02;96.22;97720.03;5118694;27;20167;-84
2021/12/08 00:05:15;;;;;;;0.23;0.20;;;;;;;3.95;96.14;97726.44;5137258;27;20182;-85
2021/12/08 00:07:41;;;;;;;0.40;0.30;;;;;;;4.01;95.63;97723.53;5118571;27;20298;-82
2021/12/08 00:10:28;;;;;;;0.30;0.30;;;;;;;3.95;96.09;97723.00;5136545;27;20199;-85
2021/12/08 00:13:04;;;;;;;0.30;0.20;;;;;;;3.87;96.62;97723.38;5137124;27;20224;-85
2021/12/08 00:16:00;;;;;;;0.30;0.30;;;;;;;3.97;96.07;97742.75;5136571;27;20159;-84
2021/12/08 00:18:28;;;;;;;0.20;0.20;;;;;;;4.13;95.21;97737.66;5119578;27;20713;-84
2021/12/08 00:20:57;;;;;;;0.30;0.30;;;;;;;4.18;94.28;97752.09;5136685;27;20172;-83
2021/12/08 00:23:23;;;;;;;0.20;0.20;;;;;;;3.97;95.21;97750.53;5136302;27;20240;-84
2021/12/08 00:25:49;;;;;;;0.23;0.23;;;;;;;4.07;95.32;97748.31;5136671;27;20163;-84
2021/12/08 00:28:16;;;;;;;0.77;0.53;;;;;;;4.03;96.24;97752.00;5136178;27;20613;-85
2021/12/08 00:30:47;;;;;;;0.20;0.20;;;;;;;4.07;95.87;97764.72;5136480;27;20171;-85
2021/12/08 00:33:13;;;;;;;0.50;0.37;;;;;;;4.11;96.28;97770.59;5136226;27;20215;-85
2021/12/08 00:35:40;;;;;;;0.30;0.30;;;;;;;3.99;96.76;97761.66;5136089;27;20176;-86
2021/12/08 00:38:07;;;;;;;0.40;0.30;;;;;;;4.02;96.84;97761.50;5118073;27;20200;-85
2021/12/08 00:40:33;;;;;;;0.40;0.30;;;;;;;4.34;95.18;97763.38;5118013;27;20628;-84
2021/12/08 00:43:00;;;;;;;0.93;0.50;;;;;;;4.29;95.19;97759.34;5135941;27;20638;-83
2021/12/08 00:45:26;;;;;;;0.30;0.30;;;;;;;4.45;94.24;97756.81;5135894;27;20173;-84
2021/12/08 00:47:53;;;;;;;0.40;0.30;;;;;;;4.37;94.16;97756.34;5135763;27;20172;-83
2021/12/08 00:50:21;;;;;;;0.33;0.30;;;;;;;4.19;95.19;97760.69;5135821;27;20264;-85
2021/12/08 00:52:46;;;;;;;0.30;0.30;;;;;;;4.23;95.21;97768.25;5136317;27;20171;-85
2021/12/08 00:55:15;;;;;;;0.20;0.20;;;;;;;4.10;96.17;97764.56;5135986;27;20190;-83
2021/12/08 00:57:41;;;;;;;0.23;0.20;;;;;;;4.24;96.57;97772.53;5135633;27;20171;-83
2021/12/08 01:00:13;;;;;;;0.20;0.20;;;;;;;4.17;96.68;97768.53;5135855;27;20212;-86
2021/12/08 01:02:39;;;;;;;0.47;0.33;;;;;;;4.11;96.51;97770.59;5136125;27;20581;-86
2021/12/08 01:05:08;;;;;;;0.50;0.40;;;;;;;4.08;97.12;97766.41;5135487;27;20258;-84
2021/12/08 01:07:33;;;;;;;0.30;0.30;;;;;;;4.08;96.79;97779.38;5135429;27;20626;-85
2021/12/08 01:09:59;;;;;;;1.00;0.50;;;;;;;4.08;97.42;97779.38;5117236;27;20298;-86
2021/12/08 01:12:25;;;;;;;0.10;0.10;;;;;;;4.05;97.29;97779.50;5135344;27;20175;-84
2021/12/08 01:14:50;;;;;;;0.63;0.63;;;;;;;4.12;97.21;97795.59;5135313;27;20178;-84
2021/12/08 01:17:15;;;;;;;1.37;0.40;;;;;;;4.44;95.40;97779.31;5135258;27;20532;-84
2021/12/08 01:19:41;;;;;;;0.77;0.63;;;;;;;4.25;95.37;97784.56;5135489;27;20165;-85
2021/12/08 01:22:07;;;;;;;0.30;0.30;;;;;;;4.23;95.39;97801.97;5117316;27;20179;-85
2021/12/08 01:24:32;;;;;;;0.43;0.40;;;;;;;4.23;96.57;97786.41;5135262;27;20262;-85
2021/12/08 01:26:58;;;;;;;0.43;0.27;;;;;;;4.33;94.96;97808.38;5134722;27;20171;-85
2021/12/08 01:29:24;;;;;;;0.30;0.30;;;;;;;4.42;94.95;97803.66;5134938;27;20223;-86
2021/12/08 01:31:49;;;;;;;0.50;0.43;;;;;;;4.48;94.52;97801.59;5134993;27;20175;-85
2021/12/08 01:34:16;;;;;;;0.23;0.23;;;;;;;4.41;93.80;97799.38;5134915;27;20181;-87
2021/12/08 01:36:42;;;;;;;0.20;0.20;;;;;;;4.46;94.15;97797.38;5117942;27;20175;-86
2021/12/08 01:39:08;;;;;;;0.73;0.47;;;;;;;4.53;93.52;97802.22;5117020;27;20172;-85
2021/12/08 01:41:34;;;;;;;0.30;0.30;;;;;;;4.46;94.00;97803.41;5116726;27;20204;-89
2021/12/08 01:46:47;;;;;;;0.20;0.20;;;;;;;4.47;93.80;97799.06;5135364;27;20260;-85
2021/12/08 01:49:13;;;;;;;0.50;0.40;;;;;;;4.62;92.98;97811.28;5134614;27;20698;-86
2021/12/08 01:51:39;;;;;;;0.40;0.40;;;;;;;4.53;92.39;97815.19;5134702;27;20183;-86
2021/12/08 01:54:06;;;;;;;2.90;0.50;;;;;;;4.54;92.94;97816.00;5134643;27;20624;-84
2021/12/08 01:56:34;;;;;;;0.60;0.40;;;;;;;4.44;93.60;97820.81;5134630;27;20167;-84
2021/12/08 01:59:01;;;;;;;0.37;0.30;;;;;;;4.32;94.52;97822.25;5116522;27;20167;-85
2021/12/08 02:01:31;;;;;;;0.20;0.20;;;;;;;4.54;93.19;97821.19;5134541;27;20176;-89
2021/12/08 02:03:56;;;;;;;0.30;0.20;;;;;;;4.61;93.13;97820.00;5116395;27;20182;-86
2021/12/08 02:06:23;;;;;;;0.40;0.30;;;;;;;4.54;93.87;97823.78;5116334;27;20179;-85
2021/12/08 02:08:52;;;;;;;1.80;0.40;;;;;;;4.54;93.92;97821.19;5134335;27;20671;-85
2021/12/08 02:11:19;;;;;;;0.10;0.10;;;;;;;4.43;93.82;97823.50;5134372;27;20227;-86
2021/12/08 02:13:45;;;;;;;0.47;0.40;;;;;;;4.49;93.62;97823.19;5134299;27;20195;-86
2021/12/08 02:16:14;;;;;;;1.50;0.47;;;;;;;4.60;93.47;97820.91;5116522;28;20179;-84
2021/12/08 02:18:42;;;;;;;0.30;0.30;;;;;;;4.54;93.14;97834.16;5134598;27;20206;-86
2021/12/08 02:21:22;;;;;;;1.03;0.60;;;;;;;4.66;93.43;97823.22;5134263;27;20562;-85
2021/12/08 02:23:47;;;;;;;0.23;0.23;;;;;;;4.51;93.95;97834.34;5134449;28;20186;-87
2021/12/08 02:26:13;;;;;;;0.30;0.30;;;;;;;4.42;94.43;97839.97;5116456;28;20183;-86
2021/12/08 02:28:39;;;;;;;0.20;0.20;;;;;;;4.47;94.62;97845.78;5116045;28;20219;-85
2021/12/08 02:31:08;;;;;;;0.33;0.33;;;;;;;4.62;93.25;97845.00;5134466;28;20539;-86
2021/12/08 02:48:21;;;;;;;0.57;0.43;;;;;;;4.80;91.87;97864.88;5093007;27;20335;-84
2021/12/08 02:50:16;;;;;;;1.40;0.57;;;;;;;4.87;91.82;97861.06;5116683;27;20220;-85
2021/12/08 02:52:42;;;;;;;0.57;0.43;;;;;;;4.78;92.29;97862.34;5138082;27;20176;-86
2021/12/08 02:55:08;;;;;;;0.30;0.20;;;;;;;4.69;92.36;97874.97;5119974;27;20171;-85
2021/12/08 02:57:34;;;;;;;0.40;0.40;;;;;;;4.54;93.25;97870.50;5119948;27;20184;-83
2021/12/08 03:00:00;;;;;;;0.27;0.20;;;;;;;4.66;92.75;97881.13;5137965;27;20185;-84
2021/12/08 03:02:26;;;;;;;0.27;0.20;;;;;;;4.77;92.61;97878.03;5138178;27;20176;-84
2021/12/08 03:04:52;;;;;;;0.40;0.40;;;;;;;4.73;92.34;97889.44;5137885;27;20507;-82
2021/12/08 03:07:18;;;;;;;0.53;0.30;;;;;;;4.81;92.08;97884.72;5137842;27;20185;-83
2021/12/08 03:09:44;;;;;;;0.30;0.30;;;;;;;4.79;91.94;97882.22;5137726;27;20279;-84
2021/12/08 03:12:09;;;;;;;0.93;0.50;;;;;;;4.80;92.09;97886.47;5137750;27;20610;-84
2021/12/08 03:14:35;;;;;;;0.20;0.20;;;;;;;4.71;91.68;97891.28;5137694;27;20617;-85
2021/12/08 03:17:05;;;;;;;0.60;0.40;;;;;;;4.62;93.03;97897.75;5137636;27;20287;-83
2021/12/08 03:19:31;;;;;;;0.37;0.37;;;;;;;4.73;92.48;97890.28;5119462;27;20183;-83
2021/12/08 03:21:57;;;;;;;0.70;0.63;;;;;;;4.72;92.15;97904.19;5137562;27;20228;-85
2021/12/08 03:27:06;;;;;;;0.40;0.20;;;;;;;4.78;92.08;97908.22;5137446;27;20178;-83
2021/12/08 03:32:13;;;;;;;0.40;0.30;;;;;;;4.83;91.66;97921.81;5137960;27;20261;-84
2021/12/08 03:34:43;;;;;;;0.47;0.33;;;;;;;5.05;91.00;97924.22;5137626;27;20594;-83
2021/12/08 03:37:09;;;;;;;0.67;0.30;;;;;;;4.98;90.47;97921.06;5137567;27;20174;-84
2021/12/08 03:39:39;;;;;;;3.47;0.60;;;;;;;4.97;91.13;97924.59;5137487;27;20320;-84
2021/12/08 03:42:05;;;;;;;0.60;0.50;;;;;;;4.97;91.00;97925.44;5119078;27;20236;-85
2021/12/08 03:44:30;;;;;;;0.97;0.40;;;;;;;5.05;89.98;97925.06;5119064;27;20280;-85
2021/12/08 03:47:02;;;;;;;0.43;0.37;;;;;;;5.14;89.94;97929.78;5119019;27;20179;-84
2021/12/08 03:49:30;;;;;;;3.17;0.70;;;;;;;5.04;90.30;97933.75;5136309;27;20519;-85
2021/12/08 03:52:00;;;;;;;0.37;0.37;;;;;;;4.87;90.69;97933.75;5136953;27;20176;-88
2021/12/08 03:54:26;;;;;;;0.30;0.30;;;;;;;4.95;90.52;97942.81;5119146;27;20225;-84
2021/12/08 03:56:52;;;;;;;1.20;0.60;;;;;;;4.74;91.80;97946.47;5118824;27;20194;-86
2021/12/08 03:59:17;;;;;;;0.30;0.30;;;;;;;4.80;91.44;97955.72;5118714;27;20645;-88
2021/12/08 04:01:43;;;;;;;0.20;0.20;;;;;;;5.08;90.34;97956.06;5136837;27;20257;-85
2021/12/08 04:04:10;;;;;;;0.30;0.30;;;;;;;4.97;90.17;97955.75;5118694;27;20184;-84
2021/12/08 04:09:17;;;;;;;1.37;0.50;;;;;;;4.81;90.43;97955.66;5136594;27;20184;-87
2021/12/08 04:11:44;;;;;;;3.67;0.77;;;;;;;4.95;89.95;97963.59;5118910;27;20617;-85
2021/12/08 04:14:13;;;;;;;1.23;0.77;;;;;;;5.10;89.62;97967.22;5136846;27;20172;-85
2021/12/08 04:16:43;;;;;;;1.03;0.83;;;;;;;5.06;89.20;97970.84;5136505;27;20215;-85
2021/12/08 04:19:09;;;;;;;0.90;0.50;;;;;;;4.87;89.75;97977.88;5118345;27;20263;-86
2021/12/08 04:21:36;;;;;;;0.47;0.40;;;;;;;4.86;90.08;97983.97;5136439;27;20277;-84
2021/12/08 04:24:03;;;;;;;0.60;0.50;;;;;;;4.85;89.77;97971.91;5118085;27;20623;-87
2021/12/08 04:26:35;;;;;;;0.67;0.63;;;;;;;4.73;90.62;97982.88;5136271;27;20180;-85
2021/12/08 04:29:01;;;;;;;0.30;0.30;;;;;;;4.87;89.74;97978.69;5136240;27;20649;-84
2021/12/08 04:31:31;;;;;;;1.13;0.50;;;;;;;4.88;89.25;97985.59;5118093;27;20203;-86
2021/12/08 04:34:01;;;;;;;0.83;0.23;;;;;;;4.65;89.15;97985.00;5136370;27;20175;-86
2021/12/08 04:36:38;;;;;;;0.47;0.43;;;;;;;4.84;89.74;97985.81;5136110;27;20184;-84
2021/12/08 04:39:09;;;;;;;0.30;0.30;;;;;;;4.93;88.76;97993.13;5136349;27;20552;-83
2021/12/08 04:41:40;;;;;;;1.03;0.60;;;;;;;4.94;87.90;97995.69;5136070;27;20193;-85
2021/12/08 05:03:42;;;;;;;1.07;0.73;;;;;;;4.97;84.76;98020.66;5135637;27;20151;-87
2021/12/08 05:08:44;;;;;;;0.50;0.40;;;;;;;4.99;84.45;98037.00;5135434;27;20187;-84
2021/12/08 05:11:19;;;;;;;0.80;0.40;;;;;;;5.14;84.77;98033.66;5135404;27;20201;-85
2021/12/08 05:13:48;;;;;;;0.50;0.40;;;;;;;5.26;83.24;98035.69;5135407;27;20229;-85
2021/12/08 05:16:14;;;;;;;0.43;0.30;;;;;;;5.08;81.72;98046.13;5117215;27;20171;-85
2021/12/08 05:18:45;;;;;;;0.50;0.40;;;;;;;5.04;83.80;98045.41;5135256;27;20766;-84
2021/12/08 05:21:26;;;;;;;1.43;0.47;;;;;;;5.23;82.75;98056.59;5117244;27;20195;-85
2021/12/08 05:23:59;;;;;;;0.83;0.83;;;;;;;5.03;82.42;98051.53;5116976;27;20191;-85
2021/12/08 05:26:34;;;;;;;0.47;0.40;;;;;;;5.10;82.67;98058.09;5135427;27;20153;-86
2021/12/08 05:29:07;;;;;;;4.33;0.73;;;;;;;5.15;82.28;98056.13;5135554;27;20626;-86
2021/12/08 05:31:33;;;;;;;0.60;0.60;;;;;;;5.24;80.35;98070.44;5117000;27;20196;-85
2021/12/08 05:33:59;;;;;;;2.43;0.93;;;;;;;5.18;82.00;98070.72;5117250;27;20207;-86
2021/12/08 05:36:24;;;;;;;1.07;0.70;;;;;;;5.23;80.83;98079.97;5135229;27;20179;-85
2021/12/08 05:38:52;;;;;;;0.57;0.43;;;;;;;5.20;80.16;98076.69;5116839;27;20610;-85
2021/12/08 05:41:23;;;;;;;1.13;0.60;;;;;;;5.19;80.41;98083.63;5117144;27;20177;-86
2021/12/08 05:43:49;;;;;;;0.37;0.37;;;;;;;5.29;80.46;98090.06;5116793;27;20167;-85
2021/12/08 05:46:17;;;;;;;2.87;0.90;;;;;;;5.40;79.79;98095.59;5116677;27;20180;-85
2021/12/08 05:48:46;;;;;;;4.67;1.50;;;;;;;5.34;79.68;98095.91;5134701;27;20199;-86
2021/12/08 05:51:20;;;;;;;1.43;0.80;;;;;;;5.63;79.15;98099.69;5134688;27;20207;-85
2021/12/08 05:53:49;;;;;;;1.03;0.50;;;;;;;5.74;77.17;98099.16;5116542;27;20176;-85
2021/12/08 05:56:16;;;;;;;1.00;0.83;;;;;;;5.78;76.31;98101.50;5116837;27;20267;-86
2021/12/08 05:58:45;;;;;;;3.03;0.73;;;;;;;5.59;76.53;98101.56;5134570;27;20207;-87
2021/12/08 06:01:17;;;;;;;1.57;0.83;;;;;;;5.24;76.92;98114.59;5116410;27;20186;-86
2021/12/08 06:03:45;;;;;;;2.10;1.23;;;;;;;5.37;77.10;98113.91;5116468;28;20198;-86
2021/12/08 06:06:11;;;;;;;0.63;0.37;;;;;;;5.61;75.35;98106.69;5116394;28;20175;-87
2021/12/08 06:08:37;;;;;;;0.80;0.67;;;;;;;5.46;75.82;98118.69;5134380;27;20193;-88
2021/12/08 06:11:06;;;;;;;1.57;0.90;;;;;;;5.47;75.80;98127.31;5116284;27;20248;-86
2021/12/08 06:13:31;;;;;;;0.43;0.40;;;;;;;5.55;74.69;98114.81;5117186;27;20175;-87
2021/12/08 06:15:57;;;;;;;1.33;0.50;;;;;;;5.65;75.97;98120.38;5116230;27;20175;-86
2021/12/08 06:18:26;;;;;;;0.70;0.60;;;;;;;5.69;75.50;98119.31;5116255;27;20181;-85
2021/12/08 06:20:56;;;;;;;1.60;0.83;;;;;;;5.67;74.25;98131.53;5116158;27;20209;-88
2021/12/08 06:23:22;;;;;;;4.50;1.20;;;;;;;5.89;74.36;98137.41;5116117;28;20186;-86
2021/12/08 06:25:47;;;;;;;0.60;0.40;;;;;;;5.79;74.01;98138.75;5116410;28;20193;-86
2021/12/08 06:28:13;;;;;;;4.57;0.77;;;;;;;5.90;73.27;98139.09;5134107;28;20192;-87
2021/12/08 06:30:45;;;;;;;1.37;0.67;;;;;;;6.02;72.71;98135.88;5134442;28;20186;-87
2021/12/08 06:33:12;;;;;;;0.30;0.30;;;;;;;5.91;71.73;98132.97;5134462;28;20539;-90
2021/12/08 06:35:46;;;;;;;1.77;1.10;;;;;;;5.92;73.11;98151.09;5134201;28;20261;-85
2021/12/08 06:38:12;;;;;;;3.17;1.27;;;;;;;5.84;73.06;98162.78;5134462;28;20180;-86
2021/12/08 06:40:51;;;;;;;0.60;0.40;;;;;;;5.89;73.13;98156.47;5116103;28;20208;-85
2021/12/08 06:43:20;;;;;;;2.47;1.33;;;;;;;5.74;72.17;98162.38;5134087;28;20671;-85
2021/12/08 06:45:50;;;;;;;0.73;0.50;;;;;;;5.99;71.73;98162.91;5134041;28;20175;-86
2021/12/08 06:48:21;;;;;;;1.30;0.80;;;;;;;6.10;71.67;98172.75;5115846;28;20170;-87
2021/12/08 06:50:56;;;;;;;1.60;0.63;;;;;;;5.97;71.85;98174.28;5134042;28;20524;-86
2021/12/08 06:53:23;;;;;;;2.33;0.93;;;;;;;6.00;71.58;98193.16;5133993;28;20172;-85
2021/12/08 06:55:56;;;;;;;2.67;1.00;;;;;;;6.13;70.93;98193.44;5133902;28;20182;-86
2021/12/08 06:58:26;;;;;;;0.70;0.60;;;;;;;6.30;70.71;98195.16;5116714;28;20164;-87
2021/12/08 07:01:20;;;;;;;2.77;0.97;;;;;;;6.49;69.37;98188.97;5116179;28;20173;-88
2021/12/08 07:06:48;;;;;;;1.30;0.60;;;;;;;6.09;70.34;98205.72;5134405;28;20515;-88
2021/12/08 07:09:19;;;;;;;1.77;1.07;;;;;;;6.27;70.88;98206.56;5115753;28;20191;-86
2021/12/08 07:11:45;;;;;;;1.90;0.80;;;;;;;6.16;70.76;98214.06;5115981;28;20228;-86
2021/12/08 07:14:11;;;;;;;0.83;0.67;;;;;;;6.19;70.45;98208.72;5133799;28;20178;-87
2021/12/08 07:16:41;;;;;;;1.23;0.73;;;;;;;6.24;70.72;98204.13;5115683;28;20582;-89
2021/12/08 07:19:22;;;;;;;0.77;0.60;;;;;;;6.08;69.39;98218.78;5115936;28;20262;-87
2021/12/08 07:21:50;;;;;;;2.30;1.13;;;;;;;6.04;70.31;98220.72;5134074;28;20155;-85
2021/12/08 07:24:34;;;;;;;3.63;1.17;;;;;;;6.11;70.14;98218.66;5116298;27;20194;-89
2021/12/08 07:27:06;;;;;;;6.33;1.50;;;;;;;6.08;69.27;98224.00;5119494;27;20527;-89
2021/12/08 07:29:37;;;;;;;1.70;1.10;;;;;;;6.06;71.00;98218.03;5137706;27;20632;-88
2021/12/08 07:32:25;;;;;;;1.20;0.40;;;;;;;6.02;71.08;98239.94;5119659;27;20178;-87
2021/12/08 07:34:52;;;;;;;4.60;0.60;;;;;;;6.37;70.97;98233.81;5119596;27;20171;-85
2021/12/08 07:37:23;;;;;;;4.00;1.00;;;;;;;6.37;70.69;98235.59;5137308;27;20175;-86
2021/12/08 07:39:58;;;;;;;3.90;1.30;;;;;;;6.39;70.33;98238.97;5120034;27;20167;-87
2021/12/08 07:42:29;;;;;;;3.13;1.40;;;;;;;6.43;70.56;98246.53;5119148;27;20231;-86
2021/12/08 07:44:58;;;;;;;1.43;1.23;;;;;;;6.22;69.53;98257.16;5120023;27;20186;-88
2021/12/08 07:47:26;;;;;;;2.50;1.20;;;;;;;6.25;70.15;98254.41;5137453;27;20175;-89
2021/12/08 07:50:00;;;;;;;1.77;1.00;;;;;;;6.25;69.98;98254.41;5136963;27;20183;-89
2021/12/08 07:52:30;;;;;;;2.80;1.57;;;;;;;6.46;69.51;98251.59;5137591;27;20596;-87
2021/12/08 07:54:56;;;;;;;4.37;1.30;;;;;;;6.54;68.04;98254.66;5137487;27;20168;-86
2021/12/08 07:57:26;;;;;;;3.67;1.43;;;;;;;6.32;69.18;98255.78;5118741;27;20213;-86
2021/12/08 07:59:56;;;;;;;5.20;1.50;;;;;;;6.41;69.59;98264.00;5118767;27;20174;-87
2021/12/08 08:02:25;;;;;;;2.37;1.47;;;;;;;6.49;69.32;98261.84;5119033;27;20238;-87
2021/12/08 08:04:52;;;;;;;2.70;1.40;;;;;;;6.47;68.68;98248.03;5119024;27;20640;-86
2021/12/08 08:07:19;;;;;;;3.70;1.77;;;;;;;6.66;69.19;98258.38;5137039;27;20636;-86
2021/12/08 08:09:48;;;;;;;3.23;2.27;;;;;;;6.75;69.14;98253.56;5136538;27;20202;-86
2021/12/08 08:12:18;;;;;;;1.10;0.77;;;;;;;6.68;69.37;98249.56;5119406;27;20533;-87
2021/12/08 08:14:51;;;;;;;3.27;2.13;;;;;;;6.74;68.16;98261.44;5118524;27;20167;-86
2021/12/08 08:17:19;;;;;;;1.77;1.27;;;;;;;6.80;67.19;98256.78;5136831;27;20177;-86
2021/12/08 08:19:47;;;;;;;3.93;2.03;;;;;;;6.76;67.76;98257.00;5136455;27;20246;-85
2021/12/08 08:22:24;;;;;;;1.80;1.20;;;;;;;6.84;67.11;98256.63;5136405;27;20640;-86
2021/12/08 08:24:56;;;;;;;4.77;1.53;;;;;;;6.96;67.72;98262.03;5118429;27;20547;-86
2021/12/08 08:27:24;;;;;;;5.93;2.07;;;;;;;7.11;67.47;98265.59;5128593;27;20168;-85
2021/12/08 08:29:50;;;;;;;3.20;1.77;;;;;;;7.08;67.55;98263.13;5136754;27;20195;-85
2021/12/08 08:32:24;;;;;;;3.77;1.73;;;;;;;7.21;67.18;98267.63;5118339;27;20175;-86
2021/12/08 08:34:54;;;;;;;6.37;1.43;;;;;;;7.38;66.00;98258.91;5136643;27;20167;-85
2021/12/08 08:37:21;;;;;;;1.87;1.27;;;;;;;7.36;66.09;98258.16;5136122;27;20615;-86
2021/12/08 08:39:53;;;;;;;6.83;1.63;;;;;;;7.46;66.43;98261.13;5118217;27;20526;-88
2021/12/08 08:42:26;;;;;;;3.20;2.17;;;;;;;7.30;66.41;98255.88;5136311;27;20164;-85
2021/12/08 08:44:58;;;;;;;4.20;1.90;;;;;;;7.30;67.09;98258.47;5136279;27;20168;-86
2021/12/08 08:47:31;;;;;;;3.53;1.83;;;;;;;7.32;68.19;98251.41;5136555;27;20592;-87
2021/12/08 08:49:57;;;;;;;5.37;2.40;;;;;;;7.59;66.76;98256.91;5136099;27;20250;-85
2021/12/08 08:52:27;;;;;;;1.83;1.37;;;;;;;7.29;65.40;98260.25;5136066;27;20187;-89
2021/12/08 08:54:58;;;;;;;4.67;2.47;;;;;;;7.33;66.03;98260.94;5136354;27;20239;-86
2021/12/08 08:57:34;;;;;;;4.10;2.70;;;;;;;7.64;66.66;98255.75;5136589;27;20522;-86
2021/12/08 09:00:05;;;;;;;3.97;1.67;;;;;;;7.88;65.54;98261.38;5135689;27;20219;-85
2021/12/08 09:02:37;;;;;;;8.03;2.27;;;;;;;7.61;64.34;98255.91;5117614;27;20167;-86
2021/12/08 09:05:09;;;;;;;1.50;1.00;;;;;;;7.51;64.96;98257.34;5135608;27;20198;-90
2021/12/08 09:07:39;;;;;;;2.23;1.20;;;;;;;7.68;65.10;98267.69;5135787;27;20227;-85
2021/12/08 09:10:13;;;;;;;4.27;2.23;;;;;;;7.79;65.20;98265.31;5117344;27;20663;-85
2021/12/08 09:12:47;;;;;;;4.33;2.10;;;;;;;7.94;65.03;98258.41;5136097;27;20619;-86
2021/12/08 09:15:21;;;;;;;5.40;2.23;;;;;;;7.88;64.72;98264.84;5135991;27;20170;-87
2021/12/08 09:18:04;;;;;;;6.30;2.10;;;;;;;8.05;64.54;98254.28;5135556;27;20163;-86
2021/12/08 09:20:59;;;;;;;2.83;1.63;;;;;;;8.03;63.02;98247.47;5135604;27;20159;-85
2021/12/08 09:23:31;;;;;;;3.60;2.33;;;;;;;7.73;64.02;98262.22;5135099;27;20195;-86
2021/12/08 09:26:03;;;;;;;3.67;1.87;;;;;;;7.90;65.35;98255.16;5135472;27;20219;-87
2021/12/08 09:28:42;;;;;;;4.87;2.33;;;;;;;7.98;64.69;98258.16;5135352;27;20191;-88
2021/12/08 09:31:21;;;;;;;2.10;1.23;;;;;;;7.85;64.12;98258.94;5135318;27;20603;-88
2021/12/08 09:33:54;;;;;;;18.07;3.33;;;;;;;7.92;65.00;98253.28;5135302;27;20238;-86
2021/12/08 09:36:28;;;;;;;6.27;1.53;;;;;;;8.09;63.86;98251.50;5135562;27;20501;-89
2021/12/08 09:39:04;;;;;;;4.60;2.50;;;;;;;8.19;62.94;98258.72;5134949;27;20171;-85
2021/12/08 09:41:39;;;;;;;7.60;3.47;;;;;;;8.22;64.17;98249.88;5135064;27;20616;-86
2021/12/08 09:44:10;;;;;;;2.87;1.80;;;;;;;8.38;61.87;98243.72;5134859;27;20172;-86
2021/12/08 09:46:44;;;;;;;4.43;2.47;;;;;;;8.34;62.23;98251.81;5116459;27;20167;-89
2021/12/08 09:49:12;;;;;;;7.07;3.33;;;;;;;8.27;61.50;98245.25;5134846;27;20188;-86
2021/12/08 09:51:38;;;;;;;3.83;2.03;;;;;;;8.23;61.05;98248.97;5134961;27;20172;-88
2021/12/08 09:54:04;;;;;;;3.50;2.10;;;;;;;8.47;61.92;98242.34;5134626;27;20171;-85
2021/12/08 09:56:33;;;;;;;6.20;1.73;;;;;;;8.52;61.25;98243.75;5134920;27;20176;-85
2021/12/08 09:59:00;;;;;;;4.13;1.73;;;;;;;8.60;61.66;98244.13;5134568;27;20179;-86
2021/12/08 10:01:27;;;;;;;8.00;3.00;;;;;;;8.48;63.05;98244.88;5134533;27;20628;-85
2021/12/08 10:03:55;;;;;;;5.53;3.07;;;;;;;8.84;62.66;98244.47;5134532;27;20177;-86
2021/12/08 10:06:22;;;;;;;3.77;1.73;;;;;;;8.49;62.08;98245.72;5116393;27;20527;-86
2021/12/08 10:08:49;;;;;;;3.33;1.50;;;;;;;8.41;61.49;98248.75;5134375;27;20209;-86
2021/12/08 10:11:17;;;;;;;4.43;1.90;;;;;;;8.34;61.83;98243.97;5134770;27;20249;-85
2021/12/08 10:13:45;;;;;;;6.20;3.53;;;;;;;8.22;62.41;98239.44;5134437;27;20237;-86
2021/12/08 10:16:12;;;;;;;8.30;3.27;;;;;;;8.07;63.03;98239.38;5134361;27;20180;-86
2021/12/08 10:18:38;;;;;;;7.27;2.13;;;;;;;8.28;63.86;98246.94;5116275;27;20254;-86
2021/12/08 10:21:03;;;;;;;5.03;2.27;;;;;;;8.23;62.93;98241.13;5116198;28;20210;-86
2021/12/08 10:23:37;;;;;;;4.53;2.50;;;;;;;8.48;62.87;98246.63;5116355;28;20191;-88
2021/12/08 10:26:16;;;;;;;5.33;2.20;;;;;;;8.12;61.44;98246.97;5116255;28;20191;-87
2021/12/08 10:28:46;;;;;;;5.00;1.97;;;;;;;8.23;61.07;98243.75;5116991;28;20194;-86
2021/12/08 10:31:31;;;;;;;6.53;2.50;;;;;;;8.18;61.16;98245.75;5116168;28;20179;-89
2021/12/08 10:34:30;;;;;;;7.00;2.70;;;;;;;8.39;61.86;98244.53;5116115;28;20617;-86
2021/12/08 10:37:01;;;;;;;7.47;2.07;;;;;;;8.57;61.16;98238.25;5115886;28;20251;-87
2021/12/08 10:39:35;;;;;;;5.00;2.20;;;;;;;8.69;60.89;98240.16;5116030;28;20159;-85
2021/12/08 10:42:17;;;;;;;4.57;2.37;;;;;;;8.64;60.94;98244.81;5134103;28;20194;-86
2021/12/08 10:47:27;;;;;;;5.83;2.80;;;;;;;9.04;61.57;98240.66;5134051;28;20168;-85
2021/12/08 10:55:19;;;;;;;6.97;2.90;;;;;;;9.04;60.34;98254.56;5134872;28;20189;-85
2021/12/08 10:57:53;;;;;;;9.03;2.93;;;;;;;9.37;59.82;98251.66;5133956;28;20186;-85
2021/12/08 11:00:39;;;;;;;4.60;2.30;;;;;;;9.35;59.44;98252.69;5136698;27;20298;-85
2021/12/08 11:03:11;;;;;;;8.60;3.80;;;;;;;9.25;58.75;98260.25;5138555;27;20516;-85
2021/12/08 11:05:59;;;;;;;5.83;2.87;;;;;;;9.41;59.23;98262.78;5120142;27;20206;-85
2021/12/08 11:08:47;;;;;;;6.13;3.20;;;;;;;9.41;58.77;98263.59;5119722;27;20169;-85
2021/12/08 11:11:18;;;;;;;5.60;3.13;;;;;;;9.35;59.86;98261.38;5119237;27;20229;-85
2021/12/08 11:13:47;;;;;;;8.83;4.00;;;;;;;9.64;59.38;98264.81;5137838;27;20151;-85
2021/12/08 11:16:22;;;;;;;4.17;2.30;;;;;;;9.66;58.69;98262.94;5119679;27;20185;-86
2021/12/08 11:18:57;;;;;;;6.27;3.07;;;;;;;9.61;58.78;98263.22;5120657;27;20623;-87
2021/12/08 11:21:31;;;;;;;8.73;2.93;;;;;;;9.84;59.55;98260.00;5119868;27;20170;-87
2021/12/08 11:23:59;;;;;;;11.57;5.20;;;;;;;10.32;58.74;98258.66;5137598;27;20638;-87
2021/12/08 11:26:38;;;;;;;7.50;3.63;;;;;;;10.26;57.71;98253.81;5137778;27;20229;-87
2021/12/08 11:29:17;;;;;;;7.80;3.40;;;;;;;9.97;58.45;98256.59;5119387;27;20229;-86
2021/12/08 11:31:44;;;;;;;5.90;3.27;;;;;;;9.92;59.68;98256.03;5138024;27;20156;-87
2021/12/08 11:34:20;;;;;;;6.00;2.80;;;;;;;10.18;58.60;98256.09;5137692;27;20175;-86
2021/12/08 11:36:50;;;;;;;10.53;4.03;;;;;;;9.97;58.28;98251.34;5137916;27;20174;-85
2021/12/08 11:39:22;;;;;;;5.33;3.00;;;;;;;9.64;57.63;98262.19;5137584;27;20186;-85
2021/12/08 11:41:55;;;;;;;12.33;3.80;;;;;;;9.75;59.04;98251.88;5137795;27;20588;-86
2021/12/08 11:44:25;;;;;;;8.70;4.00;;;;;;;9.95;58.77;98254.09;5137173;27;20175;-85
2021/12/08 11:46:53;;;;;;;4.13;2.30;;;;;;;10.05;57.51;98260.41;5119845;27;20234;-86
2021/12/08 11:49:19;;;;;;;3.67;2.33;;;;;;;9.96;58.39;98250.50;5136980;27;20206;-86
2021/12/08 11:51:45;;;;;;;6.07;2.77;;;;;;;10.39;57.05;98259.94;5137265;27;20546;-86
2021/12/08 11:54:34;;;;;;;6.00;2.67;;;;;;;10.33;54.96;98257.69;5136961;27;20266;-85
2021/12/08 11:57:10;;;;;;;11.47;3.47;;;;;;;10.95;54.92;98247.44;5136961;27;20651;-85
2021/12/08 12:00:00;;;;;;;7.50;3.50;;;;;;;11.21;53.70;98249.13;5137172;27;20492;-86
2021/12/08 12:02:37;;;;;;;7.27;2.87;;;;;;;11.19;54.63;98245.72;5137161;27;20231;-85
2021/12/08 12:05:16;;;;;;;6.83;2.90;;;;;;;10.94;54.16;98259.69;5137097;27;20175;-86
2021/12/08 12:07:42;;;;;;;7.43;3.23;;;;;;;10.94;54.51;98261.47;5118733;27;20247;-85
2021/12/08 12:10:11;;;;;;;10.37;4.20;;;;;;;10.83;55.06;98251.72;5136385;27;20183;-86
2021/12/08 12:12:39;;;;;;;7.23;3.73;;;;;;;10.76;53.98;98263.56;5136904;27;20175;-85
2021/12/08 12:15:06;;;;;;;7.73;3.43;;;;;;;10.96;54.55;98262.22;5119296;27;20216;-85
2021/12/08 12:17:32;;;;;;;5.97;2.47;;;;;;;11.15;53.51;98267.88;5136571;27;20168;-85
2021/12/08 12:20:05;;;;;;;4.17;2.13;;;;;;;11.08;53.52;98275.31;5136739;27;20190;-86
2021/12/08 12:22:43;;;;;;;7.33;2.80;;;;;;;11.04;53.78;98280.88;5119533;27;20159;-85
2021/12/08 12:25:25;;;;;;;7.43;3.33;;;;;;;10.75;54.16;98282.00;5136302;27;20243;-86
2021/12/08 12:27:57;;;;;;;8.13;3.27;;;;;;;10.75;55.12;98280.22;5136643;27;20620;-85
2021/12/08 12:30:56;;;;;;;4.30;2.13;;;;;;;10.93;54.41;98286.00;5136211;27;20302;-85
2021/12/08 12:33:22;;;;;;;4.63;2.57;;;;;;;11.03;53.14;98292.34;5136541;27;20167;-85
2021/12/08 12:35:54;;;;;;;7.83;3.20;;;;;;;10.85;51.85;98280.44;5136196;27;20174;-88
2021/12/08 12:38:37;;;;;;;6.17;2.77;;;;;;;10.67;54.46;98290.38;5118092;27;20174;-85
2021/12/08 12:41:06;;;;;;;6.57;3.27;;;;;;;10.74;52.92;98293.44;5136400;27;20226;-86
2021/12/08 12:43:38;;;;;;;5.67;3.10;;;;;;;10.68;53.64;98280.75;5136271;27;20258;-85
2021/12/08 12:46:15;;;;;;;6.50;2.67;;;;;;;10.91;53.11;98288.75;5119086;27;20176;-85
2021/12/08 12:48:41;;;;;;;5.70;2.40;;;;;;;10.90;52.53;98286.25;5135851;27;20191;-85
2021/12/08 12:51:09;;;;;;;4.83;2.47;;;;;;;10.87;52.64;98297.78;5135887;27;20262;-86
2021/12/08 12:53:34;;;;;;;7.07;2.90;;;;;;;10.75;51.91;98300.34;5117963;27;20184;-85